Accueil
METAR-TAF:

METAR-TAF

Aéroports :

Elsenborn

Butgenbach, Belgique

latitude: 50-28N, longitude: 006-11E, altitude: 564 m

Observation

Le bulletin a été fait il y a 30 minutes, à 01:55 UTC
Vent 1 kt de direction variable
Température 8°C
Humidité 100%
Pression 1024 hPa
Visibilité: 9000 m

METAR: EBLB 190155Z AUTO VRB01KT 9000 NCD 08/08 Q1024 BLU

Heure: 04:25 (02:25 UTC)


TAF: absent

Observations et prévisions météorologiques de plus de 4000 aéroports (messages METAR et TAF).

Les stations disponibles sont représentées par des disques jaunes et rouges sur la carte.

Passer la souris dessus pour voir le nom de la station.

Cliquer dessus pour voir les observations et prévisions météorologiques.

Pour changer de carte: cliquez sur les boutons verts avec une croix noire pour zoomer, sur le bouton vert avec un tiret pour effectuer un zoom arrière, ou sur les flèches vertes pour les cartes adjacentes.


METAR-TAF: